Time;durP1;ratioP1;P1;durP2;ratioP2;P2;SDS_P1;SDS_P2;PMS_P1;PMS_P2;Temp;Humidity;BMP_temperature;BMP_pressure;BME280_temperature;BME280_humidity;BME280_pressure;Samples;Min_cycle;Max_cycle;Signal;HPM_P1;HPM_P2
2021/08/19 00:01:46;;;;;;;4.10;3.70;;;17.40;99.90;;;;;;5049249;28;20075;-79
2021/08/19 00:04:13;;;;;;;3.15;2.85;;;17.30;99.90;;;;;;5054427;28;20110;-78
2021/08/19 00:06:40;;;;;;;3.40;3.05;;;17.40;99.90;;;;;;5043800;28;20041;-80
2021/08/19 00:09:07;;;;;;;4.25;3.67;;;17.40;99.90;;;;;;5054529;28;20045;-78
2021/08/19 00:11:34;;;;;;;4.13;3.45;;;17.40;99.90;;;;;;5036018;28;20049;-77
2021/08/19 00:14:00;;;;;;;3.60;3.30;;;17.40;99.90;;;;;;5052826;28;20485;-77
2021/08/19 00:16:28;;;;;;;4.30;3.90;;;17.40;99.90;;;;;;5050803;28;20061;-78
2021/08/19 00:18:55;;;;;;;3.20;2.90;;;17.40;99.90;;;;;;5034805;28;20104;-78
2021/08/19 00:21:22;;;;;;;3.72;3.17;;;17.40;99.90;;;;;;5034573;28;20080;-77
2021/08/19 00:23:48;;;;;;;4.35;3.92;;;17.40;99.90;;;;;;5045086;28;20395;-77
2021/08/19 00:26:15;;;;;;;4.35;3.95;;;17.40;99.90;;;;;;5053972;28;20067;-78
2021/08/19 00:28:42;;;;;;;4.85;3.53;;;17.40;99.90;;;;;;5053310;28;20041;-77
2021/08/19 00:31:09;;;;;;;4.50;3.88;;;17.40;99.90;;;;;;5054128;28;20074;-77
2021/08/19 00:33:37;;;;;;;5.03;4.20;;;17.40;99.90;;;;;;5053769;28;20041;-77
2021/08/19 00:36:04;;;;;;;4.35;3.95;;;17.40;99.90;;;;;;5054227;28;20276;-78
2021/08/19 00:38:31;;;;;;;5.13;3.88;;;17.40;99.90;;;;;;5053240;28;20091;-77
2021/08/19 00:40:58;;;;;;;5.00;4.53;;;17.40;99.90;;;;;;5054450;28;20049;-78
2021/08/19 00:43:25;;;;;;;3.95;3.60;;;17.50;99.90;;;;;;5054583;28;20130;-78
2021/08/19 00:45:52;;;;;;;4.13;3.70;;;17.40;99.90;;;;;;5053363;28;20045;-78
2021/08/19 00:48:18;;;;;;;4.32;3.92;;;17.40;99.90;;;;;;5053820;28;20045;-77
2021/08/19 00:50:47;;;;;;;5.40;4.70;;;17.50;99.90;;;;;;5053387;28;20087;-78
2021/08/19 00:53:14;;;;;;;5.28;4.78;;;17.50;99.90;;;;;;5052210;28;20091;-78
2021/08/19 00:55:42;;;;;;;5.05;4.28;;;17.40;99.90;;;;;;5053537;28;20095;-77
2021/08/19 00:58:09;;;;;;;4.40;3.97;;;17.40;99.90;;;;;;5055676;28;20055;-77
2021/08/19 01:00:35;;;;;;;5.03;4.47;;;17.50;99.90;;;;;;5051878;28;20049;-78
2021/08/19 01:03:02;;;;;;;5.60;5.03;;;17.50;99.90;;;;;;5039135;28;20279;-78
2021/08/19 01:05:30;;;;;;;6.82;4.78;;;17.50;99.90;;;;;;5054160;28;20547;-78
2021/08/19 01:07:59;;;;;;;6.25;4.32;;;17.50;99.90;;;;;;5053691;28;20049;-78
2021/08/19 01:10:27;;;;;;;5.45;4.28;;;17.50;99.90;;;;;;5036266;28;20046;-78
2021/08/19 01:12:54;;;;;;;5.47;4.97;;;17.50;99.90;;;;;;5035082;28;20445;-79
2021/08/19 01:15:21;;;;;;;6.28;4.95;;;17.50;99.90;;;;;;5034438;28;20051;-79
2021/08/19 01:17:54;;;;;;;6.03;5.43;;;17.50;99.90;;;;;;5034249;28;20111;-78
2021/08/19 01:20:26;;;;;;;5.03;4.53;;;17.50;99.90;;;;;;5033844;28;20053;-78
2021/08/19 01:22:52;;;;;;;6.15;5.53;;;17.40;99.90;;;;;;5035123;28;20064;-80
2021/08/19 01:25:20;;;;;;;6.70;5.28;;;17.50;99.90;;;;;;5044082;28;20049;-79
2021/08/19 01:27:52;;;;;;;5.68;5.10;;;17.50;99.90;;;;;;5054850;28;20386;-79
2021/08/19 01:30:18;;;;;;;7.65;5.53;;;17.50;99.90;;;;;;5050231;28;20526;-78
2021/08/19 01:32:45;;;;;;;8.90;5.63;;;17.40;99.90;;;;;;5035374;28;20038;-80
2021/08/19 01:35:12;;;;;;;7.07;5.40;;;17.50;99.90;;;;;;5035422;28;20076;-78
2021/08/19 01:37:38;;;;;;;5.53;4.85;;;17.50;99.90;;;;;;5039838;28;20386;-79
2021/08/19 01:40:07;;;;;;;6.53;5.38;;;17.50;99.90;;;;;;5038155;28;20037;-78
2021/08/19 01:42:33;;;;;;;7.65;6.32;;;17.50;99.90;;;;;;5043862;28;20045;-78
2021/08/19 01:45:01;;;;;;;6.90;6.10;;;17.50;99.90;;;;;;5052862;28;20079;-81
2021/08/19 01:47:28;;;;;;;6.65;5.45;;;17.40;99.90;;;;;;5038861;28;20111;-80
2021/08/19 01:49:54;;;;;;;5.93;5.32;;;17.40;99.90;;;;;;5040867;28;20457;-83
2021/08/19 01:52:21;;;;;;;8.85;6.20;;;17.50;99.90;;;;;;5040964;28;20056;-78
2021/08/19 01:54:48;;;;;;;7.68;5.70;;;17.50;99.90;;;;;;5038758;28;20130;-79
2021/08/19 01:57:14;;;;;;;6.78;5.75;;;17.50;99.90;;;;;;5039903;28;20064;-79
2021/08/19 01:59:41;;;;;;;7.65;6.85;;;17.40;99.90;;;;;;5038527;28;20040;-78
2021/08/19 02:02:09;;;;;;;8.05;6.18;;;17.40;99.90;;;;;;5039422;28;20053;-79
2021/08/19 02:04:35;;;;;;;6.97;5.72;;;17.50;99.90;;;;;;5049868;28;20098;-78
2021/08/19 02:07:02;;;;;;;7.20;6.35;;;17.50;99.90;;;;;;5050445;28;20045;-82
2021/08/19 02:09:29;;;;;;;6.07;5.32;;;17.40;99.90;;;;;;5040547;28;20456;-77
2021/08/19 02:11:55;;;;;;;7.95;6.60;;;17.50;99.90;;;;;;5040089;28;20060;-80
2021/08/19 02:14:22;;;;;;;6.35;5.47;;;17.40;99.90;;;;;;5040054;28;20041;-82
2021/08/19 02:16:49;;;;;;;6.88;5.80;;;17.40;99.90;;;;;;5048448;28;20049;-82
2021/08/19 02:19:17;;;;;;;6.25;5.65;;;17.40;99.90;;;;;;5055019;28;20102;-80
2021/08/19 02:21:43;;;;;;;6.15;5.55;;;17.40;99.90;;;;;;5054200;28;20044;-80
2021/08/19 02:24:10;;;;;;;8.30;6.22;;;17.30;99.90;;;;;;5054516;28;20393;-80
2021/08/19 02:26:36;;;;;;;7.63;5.75;;;17.30;99.90;;;;;;5054609;28;20045;-79
2021/08/19 02:29:03;;;;;;;6.00;5.35;;;17.30;99.90;;;;;;5053951;28;20079;-77
2021/08/19 02:31:30;;;;;;;7.93;6.07;;;17.40;99.90;;;;;;5054407;28;20103;-79
2021/08/19 02:33:57;;;;;;;9.00;6.13;;;17.40;99.90;;;;;;5054020;28;20076;-79
2021/08/19 02:36:25;;;;;;;5.93;5.32;;;17.30;99.90;;;;;;5053211;28;20477;-79
2021/08/19 02:38:52;;;;;;;6.85;5.70;;;17.40;99.90;;;;;;5054246;28;20053;-80
2021/08/19 02:41:18;;;;;;;6.32;5.40;;;17.30;99.90;;;;;;5047777;28;20045;-79
2021/08/19 02:43:45;;;;;;;7.32;6.50;;;17.30;99.90;;;;;;5033348;28;20490;-79
2021/08/19 02:46:12;;;;;;;7.25;5.35;;;17.30;99.90;;;;;;5046440;28;20095;-80
2021/08/19 02:48:39;;;;;;;6.22;5.32;;;17.30;99.90;;;;;;5043497;28;20091;-80
2021/08/19 02:51:06;;;;;;;7.65;5.13;;;17.30;99.90;;;;;;5034935;28;20054;-78
2021/08/19 02:53:34;;;;;;;7.55;5.25;;;17.30;99.90;;;;;;5046399;28;20037;-77
2021/08/19 02:56:02;;;;;;;5.90;5.38;;;17.30;99.90;;;;;;5054037;28;20049;-78
2021/08/19 02:58:29;;;;;;;6.15;4.90;;;17.30;99.90;;;;;;5056578;28;20075;-79
2021/08/19 03:00:55;;;;;;;7.10;5.03;;;17.20;99.90;;;;;;5051420;28;20049;-78
2021/08/19 03:03:22;;;;;;;8.82;5.50;;;17.20;99.90;;;;;;5037868;28;20041;-79
2021/08/19 03:05:48;;;;;;;5.55;4.97;;;17.20;99.90;;;;;;5037807;28;20096;-78
2021/08/19 03:08:15;;;;;;;6.15;5.13;;;17.20;99.90;;;;;;5044161;28;20480;-79
2021/08/19 03:10:43;;;;;;;8.57;6.15;;;17.20;99.90;;;;;;5052719;28;20037;-79
2021/08/19 03:13:10;;;;;;;9.63;5.57;;;17.20;99.90;;;;;;5038516;28;20469;-79
2021/08/19 03:15:36;;;;;;;5.18;4.68;;;17.10;99.90;;;;;;5040814;28;20053;-80
2021/08/19 03:18:04;;;;;;;6.10;5.00;;;17.10;99.90;;;;;;5049647;28;20041;-80
2021/08/19 03:20:31;;;;;;;5.93;4.72;;;17.10;99.90;;;;;;5046202;28;20090;-80
2021/08/19 03:22:58;;;;;;;6.68;5.00;;;17.10;99.90;;;;;;5058723;28;20044;-79
2021/08/19 03:25:25;;;;;;;5.97;5.05;;;17.10;99.90;;;;;;5043261;28;20095;-80
2021/08/19 03:28:00;;;;;;;6.07;5.38;;;17.10;99.90;;;;;;5041548;28;20188;-79
2021/08/19 03:30:27;;;;;;;8.32;4.40;;;17.10;99.90;;;;;;5041243;28;20118;-79
2021/08/19 03:32:54;;;;;;;5.63;5.07;;;17.10;99.90;;;;;;5053928;28;20040;-80
2021/08/19 03:35:24;;;;;;;5.60;5.07;;;17.10;99.90;;;;;;5046698;28;20379;-81
2021/08/19 03:37:50;;;;;;;5.72;5.10;;;17.10;99.90;;;;;;5059548;28;20067;-81
2021/08/19 03:40:18;;;;;;;6.63;5.47;;;17.10;99.90;;;;;;5057562;28;20048;-82
2021/08/19 03:42:44;;;;;;;6.60;5.70;;;17.10;99.90;;;;;;5059371;28;20076;-82
2021/08/19 03:45:15;;;;;;;5.43;4.93;;;17.10;99.90;;;;;;5058883;28;20059;-80
2021/08/19 03:47:42;;;;;;;6.60;5.45;;;17.10;99.90;;;;;;5061827;28;20053;-78
2021/08/19 03:50:09;;;;;;;7.80;6.18;;;17.10;99.90;;;;;;5045353;28;20049;-75
2021/08/19 03:52:36;;;;;;;5.97;5.03;;;17.10;99.90;;;;;;5057166;28;20037;-78
2021/08/19 03:55:04;;;;;;;6.38;5.65;;;17.10;99.90;;;;;;5057421;28;20425;-78
2021/08/19 03:57:31;;;;;;;7.18;5.53;;;17.00;99.90;;;;;;5059470;28;20045;-79
2021/08/19 03:59:58;;;;;;;7.07;6.20;;;17.00;99.90;;;;;;5035210;28;20115;-81
2021/08/19 04:02:26;;;;;;;6.97;5.95;;;17.00;99.90;;;;;;5044601;28;20061;-80
2021/08/19 04:04:53;;;;;;;7.93;6.22;;;17.00;99.90;;;;;;5036587;28;20536;-78
2021/08/19 04:07:19;;;;;;;7.25;6.28;;;17.00;99.90;;;;;;5050382;28;20409;-76
2021/08/19 04:09:46;;;;;;;9.90;5.85;;;17.00;99.90;;;;;;5055306;28;20095;-77
2021/08/19 04:12:13;;;;;;;8.32;5.80;;;17.00;99.90;;;;;;5054213;28;20044;-74
2021/08/19 04:14:39;;;;;;;10.07;8.25;;;17.00;99.90;;;;;;5054734;28;20049;-77
2021/08/19 04:17:06;;;;;;;7.22;6.40;;;17.00;99.90;;;;;;5053073;28;20099;-75
2021/08/19 04:19:34;;;;;;;11.35;8.30;;;17.00;99.90;;;;;;5053452;28;20060;-76
2021/08/19 04:22:01;;;;;;;11.25;6.25;;;16.90;99.90;;;;;;5059404;28;20091;-80
2021/08/19 04:24:27;;;;;;;8.38;5.63;;;16.90;99.90;;;;;;5073401;28;20083;-76
2021/08/19 04:26:54;;;;;;;14.90;6.28;;;17.00;99.90;;;;;;5076081;28;20033;-79
2021/08/19 04:29:21;;;;;;;7.88;6.07;;;17.00;99.90;;;;;;5074411;28;20052;-79
2021/08/19 04:31:47;;;;;;;6.88;5.85;;;17.00;99.90;;;;;;5073776;28;20060;-80
2021/08/19 04:34:14;;;;;;;7.10;5.28;;;17.00;99.90;;;;;;5051071;28;20049;-75
2021/08/19 04:36:42;;;;;;;5.80;4.68;;;17.00;99.90;;;;;;5053138;28;20091;-73
2021/08/19 04:39:08;;;;;;;5.95;4.40;;;17.00;99.90;;;;;;5043193;28;20096;-73
2021/08/19 04:41:37;;;;;;;7.35;5.40;;;17.00;99.90;;;;;;5037056;28;20099;-74
2021/08/19 04:44:07;;;;;;;5.72;4.80;;;17.00;99.90;;;;;;5054027;28;20064;-76
2021/08/19 04:46:34;;;;;;;4.72;4.30;;;17.00;99.90;;;;;;5056484;28;20045;-77
2021/08/19 04:49:05;;;;;;;5.07;4.03;;;17.00;99.90;;;;;;5055285;28;20110;-75
2021/08/19 04:51:32;;;;;;;4.30;3.90;;;17.00;99.90;;;;;;5057028;28;20053;-74
2021/08/19 04:54:00;;;;;;;5.90;3.40;;;17.00;99.90;;;;;;5054224;28;20049;-76
2021/08/19 04:56:29;;;;;;;3.17;2.70;;;17.10;99.90;;;;;;5053073;28;20048;-74
2021/08/19 04:58:56;;;;;;;5.97;4.05;;;17.10;99.90;;;;;;5052474;28;20053;-74
2021/08/19 05:01:23;;;;;;;4.55;3.67;;;17.20;99.90;;;;;;5051488;28;20049;-75
2021/08/19 05:03:50;;;;;;;4.80;3.90;;;17.20;99.90;;;;;;5052486;28;20044;-75
2021/08/19 05:06:17;;;;;;;6.47;3.38;;;17.20;99.90;;;;;;5052509;28;20497;-76
2021/08/19 05:08:44;;;;;;;5.95;3.40;;;17.20;99.90;;;;;;5051891;28;20049;-80
2021/08/19 05:11:13;;;;;;;3.22;2.85;;;17.20;99.90;;;;;;5060928;28;20127;-80
2021/08/19 05:13:40;;;;;;;5.35;3.13;;;17.00;99.90;;;;;;5055564;28;20041;-79
2021/08/19 05:16:07;;;;;;;3.40;3.10;;;17.00;99.90;;;;;;5050822;28;20468;-77
2021/08/19 05:18:33;;;;;;;4.22;3.53;;;16.90;99.90;;;;;;5051723;28;20049;-76
2021/08/19 05:21:00;;;;;;;5.20;3.53;;;17.00;99.90;;;;;;5050255;28;20060;-79
2021/08/19 05:23:27;;;;;;;6.80;4.93;;;16.90;99.90;;;;;;5054709;28;20378;-76
2021/08/19 05:25:54;;;;;;;4.90;4.03;;;17.00;99.90;;;;;;5055296;28;20056;-81
2021/08/19 05:28:23;;;;;;;4.32;3.75;;;17.10;99.90;;;;;;5038357;28;20056;-77
2021/08/19 05:30:49;;;;;;;4.90;3.47;;;17.10;99.90;;;;;;5053238;28;20056;-76
2021/08/19 05:33:16;;;;;;;11.70;7.60;;;17.10;99.90;;;;;;5051976;28;20489;-75
2021/08/19 05:35:43;;;;;;;5.28;4.60;;;17.10;99.90;;;;;;5051605;28;20057;-75
2021/08/19 05:38:09;;;;;;;4.40;3.95;;;17.10;99.90;;;;;;5051709;28;20040;-75
2021/08/19 05:40:36;;;;;;;7.07;5.68;;;17.20;99.90;;;;;;5050623;28;20107;-74
2021/08/19 05:43:03;;;;;;;6.22;4.88;;;17.10;99.90;;;;;;5057796;28;20041;-81
2021/08/19 05:45:31;;;;;;;7.10;6.03;;;17.10;99.90;;;;;;5051610;28;20045;-75
2021/08/19 05:47:58;;;;;;;8.18;5.88;;;17.10;99.90;;;;;;5055149;28;20045;-77
2021/08/19 05:50:25;;;;;;;7.53;4.78;;;17.10;99.90;;;;;;5055901;28;20407;-78
2021/08/19 05:52:51;;;;;;;6.10;4.97;;;17.10;99.90;;;;;;5050826;28;20060;-77
2021/08/19 05:55:18;;;;;;;7.53;5.63;;;17.40;99.90;;;;;;5052459;28;20049;-78
2021/08/19 05:57:51;;;;;;;7.85;6.13;;;17.40;99.90;;;;;;5057020;28;20041;-79
2021/08/19 06:00:20;;;;;;;6.88;5.53;;;17.40;99.90;;;;;;5057015;28;20056;-78
2021/08/19 06:02:48;;;;;;;5.50;4.80;;;17.40;99.90;;;;;;5052083;28;20091;-86
2021/08/19 06:05:15;;;;;;;5.60;4.63;;;17.60;99.90;;;;;;5052826;28;20049;-76
2021/08/19 06:07:42;;;;;;;7.72;4.93;;;17.70;99.90;;;;;;5051279;28;20045;-78
2021/08/19 06:10:36;;;;;;;7.35;4.72;;;17.60;99.90;;;;;;5054342;28;20056;-79
2021/08/19 06:13:04;;;;;;;6.18;5.00;;;17.60;99.90;;;;;;5051094;28;20104;-75
2021/08/19 06:15:30;;;;;;;6.78;5.50;;;17.60;99.90;;;;;;5050178;28;20444;-73
2021/08/19 06:17:59;;;;;;;4.43;4.03;;;17.50;99.90;;;;;;5049544;28;20107;-75
2021/08/19 06:20:26;;;;;;;6.07;4.88;;;17.50;99.90;;;;;;5052302;28;20377;-78
2021/08/19 06:22:54;;;;;;;15.68;9.48;;;17.50;99.90;;;;;;5037216;28;20463;-78
2021/08/19 06:25:20;;;;;;;6.03;5.25;;;17.50;99.90;;;;;;5053443;28;20045;-77
2021/08/19 06:27:47;;;;;;;6.00;4.70;;;17.50;99.90;;;;;;5056263;28;20505;-76
2021/08/19 06:30:15;;;;;;;6.57;5.30;;;17.40;99.90;;;;;;5054250;28;20413;-73
2021/08/19 06:32:42;;;;;;;6.13;4.80;;;17.50;99.90;;;;;;5055929;28;20110;-79
2021/08/19 06:35:11;;;;;;;8.25;5.25;;;17.30;99.90;;;;;;5058452;28;20044;-74
2021/08/19 06:37:37;;;;;;;6.32;4.35;;;17.30;99.90;;;;;;5055400;28;20044;-76
2021/08/19 06:40:05;;;;;;;9.18;4.60;;;17.30;99.90;;;;;;5053249;28;20048;-73
2021/08/19 06:42:33;;;;;;;5.85;4.50;;;17.30;99.90;;;;;;5057221;28;20045;-81
2021/08/19 06:44:59;;;;;;;6.25;4.50;;;17.40;99.90;;;;;;5057751;28;20587;-75
2021/08/19 06:47:26;;;;;;;4.97;4.40;;;17.50;99.90;;;;;;5056749;28;20049;-78
2021/08/19 06:49:53;;;;;;;5.90;4.40;;;17.40;99.90;;;;;;5047650;28;20091;-77
2021/08/19 06:52:21;;;;;;;5.30;4.40;;;17.30;99.90;;;;;;5058706;28;20048;-78
2021/08/19 06:54:50;;;;;;;4.88;4.38;;;17.30;99.90;;;;;;5064343;28;20305;-79
2021/08/19 06:57:16;;;;;;;7.28;5.40;;;17.50;99.90;;;;;;5042348;28;20107;-80
2021/08/19 06:59:43;;;;;;;4.68;4.15;;;17.50;99.90;;;;;;5045167;28;20068;-80
2021/08/19 07:02:10;;;;;;;8.65;6.43;;;17.50;99.90;;;;;;5058517;28;20075;-80
2021/08/19 07:04:37;;;;;;;8.48;4.63;;;17.50;99.90;;;;;;5056400;28;20084;-79
2021/08/19 07:07:04;;;;;;;5.97;4.93;;;17.60;99.90;;;;;;5053514;28;20474;-79
2021/08/19 07:09:33;;;;;;;5.95;4.72;;;17.80;99.90;;;;;;5059660;28;20105;-78
2021/08/19 07:12:00;;;;;;;5.82;4.50;;;17.90;99.90;;;;;;5057188;28;20041;-78
2021/08/19 07:14:34;;;;;;;5.10;4.22;;;17.90;99.90;;;;;;5059259;28;20045;-78
2021/08/19 07:17:00;;;;;;;6.03;3.90;;;18.00;99.90;;;;;;5039224;28;20501;-78
2021/08/19 07:19:28;;;;;;;5.43;4.78;;;18.00;99.90;;;;;;5046847;28;20078;-78
2021/08/19 07:21:54;;;;;;;7.80;5.28;;;18.00;99.90;;;;;;5057995;28;20098;-78
2021/08/19 07:24:21;;;;;;;7.18;4.90;;;18.00;99.90;;;;;;5057976;28;20045;-79
2021/08/19 07:26:50;;;;;;;12.55;7.50;;;18.00;99.90;;;;;;5058427;28;20049;-77
2021/08/19 07:29:17;;;;;;;7.38;4.68;;;18.00;99.90;;;;;;5056974;28;20045;-78
2021/08/19 07:31:44;;;;;;;4.47;4.00;;;18.10;99.90;;;;;;5057672;28;20048;-79
2021/08/19 07:34:10;;;;;;;4.63;3.95;;;18.00;99.90;;;;;;5058446;28;20045;-79
2021/08/19 07:36:38;;;;;;;4.70;4.28;;;18.00;99.90;;;;;;5064444;28;20103;-79
2021/08/19 07:39:04;;;;;;;8.00;5.43;;;17.90;99.90;;;;;;5056462;28;20052;-77
2021/08/19 07:41:32;;;;;;;6.43;5.03;;;17.90;99.90;;;;;;5055403;28;20075;-77
2021/08/19 07:44:00;;;;;;;5.22;4.70;;;17.80;99.90;;;;;;5055540;28;20076;-80
2021/08/19 07:46:26;;;;;;;7.50;5.13;;;17.90;99.90;;;;;;5057108;28;20048;-76
2021/08/19 07:48:56;;;;;;;7.35;4.70;;;17.90;99.90;;;;;;5056675;28;20575;-83
2021/08/19 07:51:22;;;;;;;7.72;4.90;;;17.80;99.90;;;;;;5061425;28;20072;-82
2021/08/19 07:53:49;;;;;;;6.10;4.65;;;17.60;99.90;;;;;;5054652;28;20056;-82
2021/08/19 07:56:16;;;;;;;9.88;6.03;;;17.70;99.90;;;;;;5047256;28;20489;-79
2021/08/19 07:58:43;;;;;;;6.65;4.72;;;17.70;99.90;;;;;;5038674;28;20064;-79
2021/08/19 08:01:11;;;;;;;6.60;5.05;;;17.80;99.90;;;;;;5039869;28;20049;-80
2021/08/19 08:03:38;;;;;;;7.32;4.65;;;17.80;99.90;;;;;;5050241;28;20044;-79
2021/08/19 08:06:04;;;;;;;8.32;4.85;;;17.80;99.90;;;;;;5058272;28;20049;-81
2021/08/19 08:08:31;;;;;;;9.30;4.45;;;18.00;99.90;;;;;;5057295;28;20512;-80
2021/08/19 08:10:58;;;;;;;8.40;4.63;;;18.00;99.90;;;;;;5060362;28;20053;-80
2021/08/19 08:13:24;;;;;;;5.80;4.20;;;18.00;99.90;;;;;;5063190;28;20057;-81
2021/08/19 08:15:51;;;;;;;4.82;4.00;;;18.00;99.90;;;;;;5052221;28;20045;-76
2021/08/19 08:18:19;;;;;;;5.55;4.70;;;18.00;99.90;;;;;;5055174;28;20049;-82
2021/08/19 08:20:51;;;;;;;4.93;4.30;;;18.00;99.90;;;;;;5059506;28;20083;-79
2021/08/19 08:23:19;;;;;;;7.85;3.83;;;18.20;99.90;;;;;;5059613;28;20063;-78
2021/08/19 08:25:46;;;;;;;7.47;4.80;;;18.30;99.90;;;;;;5060956;28;20044;-78
2021/08/19 08:28:15;;;;;;;4.93;3.60;;;18.40;99.90;;;;;;5063561;28;20049;-79
2021/08/19 08:30:45;;;;;;;5.30;4.05;;;18.30;99.90;;;;;;5061744;28;20041;-79
2021/08/19 08:33:12;;;;;;;3.65;3.30;;;18.30;99.90;;;;;;5059473;28;20126;-80
2021/08/19 08:35:47;;;;;;;5.88;3.55;;;18.30;99.90;;;;;;5055688;28;20037;-79
2021/08/19 08:38:16;;;;;;;5.43;4.18;;;18.40;99.90;;;;;;5058055;28;20041;-81
2021/08/19 08:40:45;;;;;;;9.10;3.90;;;18.60;99.90;;;;;;5057386;28;20055;-79
2021/08/19 08:43:14;;;;;;;5.32;4.22;;;18.60;99.90;;;;;;5049770;28;20503;-77
2021/08/19 08:45:45;;;;;;;4.88;3.38;;;18.70;99.90;;;;;;5045908;28;20066;-82
2021/08/19 08:48:14;;;;;;;5.53;4.03;;;18.70;99.90;;;;;;5058044;28;20041;-80
2021/08/19 08:50:46;;;;;;;6.88;3.95;;;18.80;99.90;;;;;;5054920;28;20531;-77
2021/08/19 08:53:14;;;;;;;9.18;4.75;;;18.80;99.90;;;;;;5054225;28;20124;-77
2021/08/19 08:55:40;;;;;;;3.90;3.13;;;18.70;99.90;;;;;;5059136;28;20251;-77
2021/08/19 08:58:08;;;;;;;7.05;4.00;;;18.70;99.90;;;;;;5054076;28;20083;-77
2021/08/19 09:00:35;;;;;;;8.02;5.18;;;18.60;99.90;;;;;;5053371;28;20064;-77
2021/08/19 09:03:08;;;;;;;5.82;4.25;;;18.50;99.90;;;;;;5060091;28;20052;-82
2021/08/19 09:05:39;;;;;;;4.15;3.65;;;18.50;99.90;;;;;;5047669;28;20486;-80
2021/08/19 09:08:12;;;;;;;;;;;18.50;99.90;;;;;;5040792;28;20069;-78
2021/08/19 09:10:38;;;;;;;6.95;3.97;;;18.70;99.90;;;;;;5055663;28;19924;-78
2021/08/19 09:13:13;;;;;;;6.38;4.45;;;18.70;99.90;;;;;;5055977;28;20079;-81
2021/08/19 09:15:40;;;;;;;5.93;4.35;;;18.80;99.90;;;;;;5036291;28;20049;-75
2021/08/19 09:21:28;;;;;;;5.00;4.18;;;18.80;99.90;;;;;;5051865;28;20091;-79
2021/08/19 09:24:15;;;;;;;5.82;4.30;;;19.00;99.90;;;;;;5055777;28;20045;-82
2021/08/19 09:26:43;;;;;;;6.10;4.60;;;19.00;99.90;;;;;;5058843;28;20454;-81
2021/08/19 09:29:26;;;;;;;5.72;4.15;;;19.10;99.90;;;;;;5040186;28;20057;-80
2021/08/19 09:31:55;;;;;;;5.35;4.03;;;19.10;99.90;;;;;;5036276;28;20050;-77
2021/08/19 09:34:23;;;;;;;5.22;4.18;;;19.10;99.90;;;;;;5035657;28;20045;-78
2021/08/19 09:37:00;;;;;;;8.18;4.60;;;19.40;99.90;;;;;;5034703;28;20045;-77
2021/08/19 09:39:36;;;;;;;6.30;4.22;;;19.80;99.90;;;;;;5050597;28;20059;-78
2021/08/19 09:42:02;;;;;;;7.90;4.43;;;20.00;99.90;;;;;;5049466;28;20071;-80
2021/08/19 09:44:32;;;;;;;4.20;3.60;;;19.90;99.90;;;;;;5036083;28;20124;-80
2021/08/19 09:46:59;;;;;;;5.15;3.80;;;19.90;99.90;;;;;;5057445;28;20076;-81
2021/08/19 09:49:30;;;;;;;10.32;6.68;;;20.00;99.90;;;;;;5043743;28;20115;-80
2021/08/19 09:52:01;;;;;;;5.97;4.22;;;20.10;99.90;;;;;;5036789;28;20141;-78
2021/08/19 09:54:29;;;;;;;;;;;20.20;99.90;;;;;;5052532;28;20421;-76
2021/08/19 09:56:57;;;;;;;7.05;3.90;;;20.00;99.90;;;;;;5054211;28;19925;-79
2021/08/19 09:59:33;;;;;;;3.63;3.15;;;20.10;99.90;;;;;;5053829;28;20483;-80
2021/08/19 10:02:00;;;;;;;4.93;3.88;;;20.20;99.90;;;;;;5051391;28;20045;-80
2021/08/19 10:04:27;;;;;;;4.68;4.25;;;20.40;99.90;;;;;;5036883;28;20053;-81
2021/08/19 10:06:55;;;;;;;5.78;4.88;;;20.50;99.90;;;;;;5053708;28;20045;-81
2021/08/19 10:09:22;;;;;;;4.72;3.13;;;20.60;99.90;;;;;;5055792;28;20056;-80
2021/08/19 10:11:50;;;;;;;12.18;7.28;;;20.40;99.90;;;;;;5044037;28;20068;-80
2021/08/19 10:14:20;;;;;;;4.75;3.50;;;20.40;99.90;;;;;;5072717;28;20045;-80
2021/08/19 10:16:48;;;;;;;9.60;6.68;;;20.40;99.90;;;;;;5071581;28;20031;-79
2021/08/19 10:19:19;;;;;;;12.90;8.38;;;20.10;99.90;;;;;;5056715;28;20037;-79
2021/08/19 10:21:50;;;;;;;7.80;4.97;;;20.10;99.90;;;;;;5053244;28;20057;-80
2021/08/19 10:24:19;;;;;;;6.18;5.00;;;20.00;99.90;;;;;;5047688;28;20059;-80
2021/08/19 10:26:46;;;;;;;14.07;7.90;;;19.90;99.90;;;;;;5050521;28;20047;-79
2021/08/19 10:29:12;;;;;;;6.32;4.82;;;19.90;99.90;;;;;;5064314;28;20103;-80
2021/08/19 10:31:47;;;;;;;6.15;4.90;;;19.90;99.90;;;;;;5064868;28;20045;-79
2021/08/19 10:34:14;;;;;;;14.13;9.52;;;19.80;99.90;;;;;;5064435;28;20055;-79
2021/08/19 10:36:52;;;;;;;11.23;7.45;;;19.80;99.90;;;;;;5064716;28;20045;-81
2021/08/19 10:39:41;;;;;;;6.93;4.20;;;20.00;99.90;;;;;;5063578;28;20045;-81
2021/08/19 10:42:28;;;;;;;9.18;4.60;;;20.10;99.90;;;;;;5062795;28;20149;-81
2021/08/19 10:44:55;;;;;;;8.73;5.55;;;20.00;99.90;;;;;;5062393;28;20053;-80
2021/08/19 10:47:40;;;;;;;5.25;4.22;;;20.40;99.90;;;;;;5063897;28;20094;-81
2021/08/19 10:50:35;;;;;;;9.63;5.47;;;21.00;99.90;;;;;;5063552;28;20049;-81
2021/08/19 10:53:11;;;;;;;3.60;3.30;;;21.20;99.90;;;;;;5027704;28;20072;-82
2021/08/19 10:55:41;;;;;;;8.05;4.22;;;20.90;99.90;;;;;;5059922;28;20485;-81
2021/08/19 10:58:23;;;;;;;6.50;4.45;;;20.90;99.90;;;;;;5041936;28;20049;-82
2021/08/19 11:00:51;;;;;;;5.53;3.75;;;20.60;99.90;;;;;;5038366;28;20085;-82
2021/08/19 11:03:59;;;;;;;4.50;4.10;;;20.50;99.90;;;;;;5048285;28;20053;-80
2021/08/19 11:06:52;;;;;;;4.60;3.60;;;20.50;99.90;;;;;;5056157;28;20049;-81
2021/08/19 11:09:41;;;;;;;4.95;3.85;;;20.60;99.90;;;;;;5061717;28;20109;-86
2021/08/19 11:12:08;;;;;;;6.80;4.13;;;21.10;99.90;;;;;;5057403;28;20455;-84
2021/08/19 11:14:35;;;;;;;6.70;4.97;;;21.00;99.90;;;;;;5042063;28;20131;-78
2021/08/19 11:17:02;;;;;;;4.32;3.92;;;21.60;99.90;;;;;;5055413;28;20096;-76
2021/08/19 11:19:31;;;;;;;4.35;3.95;;;21.40;99.90;;;;;;5054032;28;20037;-75
2021/08/19 11:22:01;;;;;;;5.32;3.95;;;20.90;99.90;;;;;;5054520;28;20075;-75
2021/08/19 11:24:29;;;;;;;4.60;4.13;;;20.60;99.90;;;;;;5053871;28;20120;-74
2021/08/19 11:27:01;;;;;;;5.90;5.30;;;20.00;99.90;;;;;;5054726;28;20056;-76
2021/08/19 11:29:29;;;;;;;8.65;5.60;;;20.10;99.90;;;;;;5054136;28;20052;-76
2021/08/19 11:31:58;;;;;;;6.13;4.28;;;20.50;99.90;;;;;;5054495;28;20075;-81
2021/08/19 11:34:24;;;;;;;7.88;4.75;;;20.60;99.90;;;;;;5056795;28;20075;-79
2021/08/19 11:36:52;;;;;;;6.32;5.05;;;21.00;99.90;;;;;;5061561;28;20045;-81
2021/08/19 11:39:28;;;;;;;9.48;7.07;;;21.50;99.90;;;;;;5061639;28;20045;-84
2021/08/19 11:41:56;;;;;;;5.70;3.72;;;21.90;99.90;;;;;;5063428;28;20049;-79
2021/08/19 11:44:23;;;;;;;3.53;3.22;;;22.40;99.90;;;;;;5057907;28;20098;-79
2021/08/19 11:46:49;;;;;;;5.18;3.90;;;22.20;99.90;;;;;;5059266;28;20397;-77
2021/08/19 11:49:17;;;;;;;4.32;3.47;;;22.00;99.90;;;;;;5053368;28;20045;-78
2021/08/19 11:51:45;;;;;;;9.98;4.03;;;22.20;99.90;;;;;;5054402;28;20080;-77
2021/08/19 11:54:13;;;;;;;6.78;3.80;;;22.30;99.90;;;;;;5054273;28;20041;-79
2021/08/19 11:56:43;;;;;;;6.25;4.50;;;22.00;99.90;;;;;;5054528;28;20175;-77
2021/08/19 11:59:12;;;;;;;5.97;3.83;;;22.10;99.90;;;;;;5055776;28;20052;-77
2021/08/19 12:01:40;;;;;;;6.60;4.97;;;21.90;99.90;;;;;;5044839;28;20091;-78
2021/08/19 12:04:08;;;;;;;7.85;4.75;;;22.00;99.90;;;;;;5037209;28;20072;-77
2021/08/19 12:06:35;;;;;;;8.30;3.55;;;22.10;99.90;;;;;;5034919;28;20076;-76
2021/08/19 12:09:07;;;;;;;5.93;3.28;;;21.70;99.90;;;;;;5052891;28;20102;-77
2021/08/19 12:11:37;;;;;;;5.10;3.38;;;22.30;99.90;;;;;;5057675;28;20486;-80
2021/08/19 12:14:06;;;;;;;3.33;3.03;;;22.70;99.90;;;;;;5059283;28;20037;-78
2021/08/19 12:16:34;;;;;;;4.85;4.35;;;22.50;99.90;;;;;;5056819;28;20059;-78
2021/08/19 12:19:05;;;;;;;3.25;2.88;;;22.50;99.90;;;;;;5058394;28;20102;-78
2021/08/19 12:21:32;;;;;;;5.30;3.75;;;22.50;99.90;;;;;;5057603;28;20045;-78
2021/08/19 12:24:09;;;;;;;5.65;3.53;;;22.30;99.90;;;;;;5061943;28;20075;-79
2021/08/19 12:26:36;;;;;;;4.35;3.67;;;22.00;99.90;;;;;;5061555;28;20041;-78
2021/08/19 12:29:03;;;;;;;5.85;3.70;;;21.80;99.90;;;;;;5061145;28;20048;-78
2021/08/19 12:31:48;;;;;;;4.75;3.47;;;22.20;99.90;;;;;;5062778;28;20049;-78
2021/08/19 12:34:15;;;;;;;5.25;3.45;;;22.40;99.90;;;;;;5045940;28;20079;-78
2021/08/19 12:36:42;;;;;;;4.95;3.47;;;22.20;99.90;;;;;;5055627;28;20049;-78
2021/08/19 12:39:23;;;;;;;6.05;3.67;;;22.00;99.90;;;;;;5054525;28;20045;-77
2021/08/19 12:41:52;;;;;;;4.43;3.50;;;21.60;99.90;;;;;;5056976;28;20420;-77
2021/08/19 12:44:21;;;;;;;7.47;5.80;;;21.30;99.90;;;;;;5059219;28;20045;-78
2021/08/19 12:46:50;;;;;;;5.93;5.32;;;21.70;99.90;;;;;;5058973;28;20071;-79
2021/08/19 12:49:27;;;;;;;7.82;4.00;;;22.20;99.90;;;;;;5047418;28;20125;-80
2021/08/19 12:52:14;;;;;;;5.75;3.13;;;22.60;99.90;;;;;;5059953;28;20099;-78
2021/08/19 12:54:41;;;;;;;5.40;4.03;;;22.40;99.90;;;;;;5058135;28;20067;-80
2021/08/19 12:57:07;;;;;;;7.75;3.65;;;22.80;99.90;;;;;;5060879;28;20049;-79
2021/08/19 12:59:34;;;;;;;4.35;3.28;;;24.20;99.90;;;;;;5056310;28;20475;-77